Terminal Aerodrome Forecast
Issued by NWS St Louis, MO

Home | Current Version | Previous Version | Text Only | Print | Product List | Glossary On
Versions: 1 2 3 4 5 6 7 8 9 10 11 12 13 14 15 16 17 18 19 20 21 22 23 24 25 26 27 28
000
FTUS43 KLSX 011700
TAFSTL
TAF
KSTL 011722Z 0118/0224 VRB04KT 4SM -SN BR OVC008
      TEMPO 0118/0119 2SM -FZDZSN BR
     FM012100 31006KT 6SM -SN OVC015
     FM020000 32006KT P6SM OVC015
     FM020900 36005KT P6SM SCT015 BKN120
     FM021700 09005KT P6SM SCT015=

USA.gov is the U.S. government's official web portal to all federal, state and local government web resources and services.